Cape Coral South, Florida
Current Conditions -  °F | °C
As of 9:53 PM on Thursday 27 Nov 2014 (Local Time) from KFMY Reporting Station
Clear Clear  
Wind Chill: 56°   Ceiling: Unl
Heat Index: 56°   Visibility: 10mi
Dew Point: 41°   Wind: 10mph
Humidity: 57%   Direction: 350°N
Pressure: 30.26"   Gusts: NA
Location:  26.5503°N, 82.0228°W
Report Text: KFMY 280253Z 35009KT 10SM CLR 13/05 A3026 RMK AO2 SLP247 T01330050 51017
Loading
Personal Weather Stations






























Interactive Weather Map New forecast layout! Learn more

10-Day Weather Forecast

Advertisements
Track Severe Weather on mobile